sensor_id;sensor_type;location;lat;lon;timestamp;P1;durP1;ratioP1;P2;durP2;ratioP2
57057;SDS011;74999;52.848;6.748;2023-12-22T00:01:08;14.35;;;9.25;;
57057;SDS011;74999;52.848;6.748;2023-12-22T00:03:33;16.20;;;9.90;;
57057;SDS011;74999;52.848;6.748;2023-12-22T00:05:59;12.55;;;8.32;;
57057;SDS011;74999;52.848;6.748;2023-12-22T00:08:24;20.92;;;9.05;;
57057;SDS011;74999;52.848;6.748;2023-12-22T00:10:50;11.27;;;6.60;;
57057;SDS011;74999;52.848;6.748;2023-12-22T00:13:15;15.98;;;9.45;;
57057;SDS011;74999;52.848;6.748;2023-12-22T00:15:41;16.73;;;9.57;;
57057;SDS011;74999;52.848;6.748;2023-12-22T00:18:10;16.75;;;8.30;;
57057;SDS011;74999;52.848;6.748;2023-12-22T00:20:35;19.48;;;10.60;;
57057;SDS011;74999;52.848;6.748;2023-12-22T00:23:01;22.85;;;8.82;;
57057;SDS011;74999;52.848;6.748;2023-12-22T00:25:27;12.93;;;8.43;;
57057;SDS011;74999;52.848;6.748;2023-12-22T00:27:52;23.42;;;8.80;;
57057;SDS011;74999;52.848;6.748;2023-12-22T00:30:18;18.40;;;8.55;;
57057;SDS011;74999;52.848;6.748;2023-12-22T00:32:44;18.95;;;9.73;;
57057;SDS011;74999;52.848;6.748;2023-12-22T00:35:10;15.20;;;12.55;;
57057;SDS011;74999;52.848;6.748;2023-12-22T00:37:35;14.02;;;8.85;;
57057;SDS011;74999;52.848;6.748;2023-12-22T00:40:01;21.30;;;9.38;;
57057;SDS011;74999;52.848;6.748;2023-12-22T00:42:30;13.25;;;7.55;;
57057;SDS011;74999;52.848;6.748;2023-12-22T00:44:56;22.38;;;8.80;;
57057;SDS011;74999;52.848;6.748;2023-12-22T00:47:21;17.98;;;9.20;;
57057;SDS011;74999;52.848;6.748;2023-12-22T00:49:47;21.15;;;8.63;;
57057;SDS011;74999;52.848;6.748;2023-12-22T00:52:12;15.48;;;8.52;;
57057;SDS011;74999;52.848;6.748;2023-12-22T00:54:38;17.15;;;9.77;;
57057;SDS011;74999;52.848;6.748;2023-12-22T00:57:03;14.18;;;8.15;;
57057;SDS011;74999;52.848;6.748;2023-12-22T00:59:29;11.25;;;8.75;;
57057;SDS011;74999;52.848;6.748;2023-12-22T01:01:55;12.57;;;8.20;;
57057;SDS011;74999;52.848;6.748;2023-12-22T01:04:20;16.40;;;9.55;;
57057;SDS011;74999;52.848;6.748;2023-12-22T01:06:46;15.45;;;10.27;;
57057;SDS011;74999;52.848;6.748;2023-12-22T01:09:11;15.70;;;8.90;;
57057;SDS011;74999;52.848;6.748;2023-12-22T01:11:37;19.08;;;9.65;;
57057;SDS011;74999;52.848;6.748;2023-12-22T01:14:03;16.40;;;8.70;;
57057;SDS011;74999;52.848;6.748;2023-12-22T01:16:28;13.48;;;8.07;;
57057;SDS011;74999;52.848;6.748;2023-12-22T01:18:54;16.90;;;8.20;;
57057;SDS011;74999;52.848;6.748;2023-12-22T01:21:19;13.63;;;8.88;;
57057;SDS011;74999;52.848;6.748;2023-12-22T01:23:45;18.42;;;8.23;;
57057;SDS011;74999;52.848;6.748;2023-12-22T01:26:10;17.90;;;9.32;;
57057;SDS011;74999;52.848;6.748;2023-12-22T01:28:36;20.08;;;8.25;;
57057;SDS011;74999;52.848;6.748;2023-12-22T01:31:02;21.77;;;9.57;;
57057;SDS011;74999;52.848;6.748;2023-12-22T01:33:28;15.02;;;8.13;;
57057;SDS011;74999;52.848;6.748;2023-12-22T01:35:54;13.50;;;8.25;;
57057;SDS011;74999;52.848;6.748;2023-12-22T01:38:20;16.48;;;8.63;;
57057;SDS011;74999;52.848;6.748;2023-12-22T01:40:45;14.63;;;8.18;;
57057;SDS011;74999;52.848;6.748;2023-12-22T01:43:11;22.05;;;12.18;;
57057;SDS011;74999;52.848;6.748;2023-12-22T01:45:38;15.40;;;7.93;;
57057;SDS011;74999;52.848;6.748;2023-12-22T01:48:04;14.07;;;7.18;;
57057;SDS011;74999;52.848;6.748;2023-12-22T01:50:30;17.00;;;7.57;;
57057;SDS011;74999;52.848;6.748;2023-12-22T01:52:56;12.68;;;8.55;;
57057;SDS011;74999;52.848;6.748;2023-12-22T01:55:21;13.65;;;8.57;;
57057;SDS011;74999;52.848;6.748;2023-12-22T01:57:47;12.82;;;8.13;;
57057;SDS011;74999;52.848;6.748;2023-12-22T02:00:14;17.58;;;9.30;;
57057;SDS011;74999;52.848;6.748;2023-12-22T02:02:40;13.50;;;11.80;;
57057;SDS011;74999;52.848;6.748;2023-12-22T02:05:09;14.05;;;8.65;;
57057;SDS011;74999;52.848;6.748;2023-12-22T02:07:37;15.43;;;11.80;;
57057;SDS011;74999;52.848;6.748;2023-12-22T02:10:06;15.13;;;8.05;;
57057;SDS011;74999;52.848;6.748;2023-12-22T02:12:33;10.63;;;8.07;;
57057;SDS011;74999;52.848;6.748;2023-12-22T02:14:59;15.80;;;8.60;;
57057;SDS011;74999;52.848;6.748;2023-12-22T02:17:26;14.00;;;8.88;;
57057;SDS011;74999;52.848;6.748;2023-12-22T02:19:57;12.25;;;8.20;;
57057;SDS011;74999;52.848;6.748;2023-12-22T02:22:24;19.08;;;9.18;;
57057;SDS011;74999;52.848;6.748;2023-12-22T02:24:49;17.40;;;11.18;;
57057;SDS011;74999;52.848;6.748;2023-12-22T02:30:14;12.80;;;8.00;;
57057;SDS011;74999;52.848;6.748;2023-12-22T02:33:01;15.20;;;8.57;;
57057;SDS011;74999;52.848;6.748;2023-12-22T02:35:30;19.13;;;8.32;;
57057;SDS011;74999;52.848;6.748;2023-12-22T02:37:58;13.82;;;8.18;;
57057;SDS011;74999;52.848;6.748;2023-12-22T02:40:25;22.13;;;11.80;;
57057;SDS011;74999;52.848;6.748;2023-12-22T02:42:52;17.63;;;8.02;;
57057;SDS011;74999;52.848;6.748;2023-12-22T02:45:18;15.70;;;8.38;;
57057;SDS011;74999;52.848;6.748;2023-12-22T02:47:44;15.73;;;9.80;;
57057;SDS011;74999;52.848;6.748;2023-12-22T02:50:10;12.38;;;8.70;;
57057;SDS011;74999;52.848;6.748;2023-12-22T02:52:38;14.02;;;8.85;;
57057;SDS011;74999;52.848;6.748;2023-12-22T02:55:04;14.65;;;8.85;;
57057;SDS011;74999;52.848;6.748;2023-12-22T02:57:30;19.67;;;8.90;;
57057;SDS011;74999;52.848;6.748;2023-12-22T02:59:56;19.13;;;9.10;;
57057;SDS011;74999;52.848;6.748;2023-12-22T03:02:22;14.40;;;9.35;;
57057;SDS011;74999;52.848;6.748;2023-12-22T03:04:47;13.70;;;10.57;;
57057;SDS011;74999;52.848;6.748;2023-12-22T03:07:13;12.52;;;9.98;;
57057;SDS011;74999;52.848;6.748;2023-12-22T03:09:39;11.10;;;7.30;;
57057;SDS011;74999;52.848;6.748;2023-12-22T03:12:06;13.07;;;7.85;;
57057;SDS011;74999;52.848;6.748;2023-12-22T03:14:32;12.05;;;8.85;;
57057;SDS011;74999;52.848;6.748;2023-12-22T03:17:01;10.77;;;8.75;;
57057;SDS011;74999;52.848;6.748;2023-12-22T03:19:28;14.55;;;8.35;;
57057;SDS011;74999;52.848;6.748;2023-12-22T03:21:54;9.88;;;7.45;;
57057;SDS011;74999;52.848;6.748;2023-12-22T03:24:20;13.23;;;7.65;;
57057;SDS011;74999;52.848;6.748;2023-12-22T03:26:47;9.23;;;8.32;;
57057;SDS011;74999;52.848;6.748;2023-12-22T03:29:16;8.88;;;6.70;;
57057;SDS011;74999;52.848;6.748;2023-12-22T03:31:42;10.32;;;8.82;;
57057;SDS011;74999;52.848;6.748;2023-12-22T03:34:08;9.98;;;8.35;;
57057;SDS011;74999;52.848;6.748;2023-12-22T03:36:33;13.57;;;8.60;;
57057;SDS011;74999;52.848;6.748;2023-12-22T03:38:59;9.85;;;8.30;;
57057;SDS011;74999;52.848;6.748;2023-12-22T03:41:24;11.00;;;8.05;;
57057;SDS011;74999;52.848;6.748;2023-12-22T03:43:50;7.25;;;6.60;;
57057;SDS011;74999;52.848;6.748;2023-12-22T03:46:16;12.40;;;7.97;;
57057;SDS011;74999;52.848;6.748;2023-12-22T03:48:41;15.75;;;7.85;;
57057;SDS011;74999;52.848;6.748;2023-12-22T03:51:07;9.52;;;7.00;;
57057;SDS011;74999;52.848;6.748;2023-12-22T03:53:33;10.75;;;7.28;;
57057;SDS011;74999;52.848;6.748;2023-12-22T03:55:58;7.95;;;7.20;;
57057;SDS011;74999;52.848;6.748;2023-12-22T03:58:24;11.70;;;8.45;;
57057;SDS011;74999;52.848;6.748;2023-12-22T04:00:51;11.10;;;7.78;;
57057;SDS011;74999;52.848;6.748;2023-12-22T04:03:17;16.65;;;11.20;;
57057;SDS011;74999;52.848;6.748;2023-12-22T04:05:42;13.88;;;12.75;;
57057;SDS011;74999;52.848;6.748;2023-12-22T04:08:08;11.30;;;7.85;;
57057;SDS011;74999;52.848;6.748;2023-12-22T04:10:33;10.20;;;7.95;;
57057;SDS011;74999;52.848;6.748;2023-12-22T04:12:59;17.58;;;8.52;;
57057;SDS011;74999;52.848;6.748;2023-12-22T04:15:24;16.98;;;9.80;;
57057;SDS011;74999;52.848;6.748;2023-12-22T04:17:50;8.80;;;7.35;;
57057;SDS011;74999;52.848;6.748;2023-12-22T04:20:15;13.38;;;7.65;;
57057;SDS011;74999;52.848;6.748;2023-12-22T04:22:41;19.58;;;11.68;;
57057;SDS011;74999;52.848;6.748;2023-12-22T04:25:07;17.17;;;8.45;;
57057;SDS011;74999;52.848;6.748;2023-12-22T04:27:33;11.43;;;7.70;;
57057;SDS011;74999;52.848;6.748;2023-12-22T04:29:59;13.60;;;7.88;;
57057;SDS011;74999;52.848;6.748;2023-12-22T04:32:25;10.20;;;9.02;;
57057;SDS011;74999;52.848;6.748;2023-12-22T04:34:51;13.05;;;7.25;;
57057;SDS011;74999;52.848;6.748;2023-12-22T04:37:16;12.77;;;9.10;;
57057;SDS011;74999;52.848;6.748;2023-12-22T04:39:42;15.93;;;9.35;;
57057;SDS011;74999;52.848;6.748;2023-12-22T04:42:08;17.73;;;8.73;;
57057;SDS011;74999;52.848;6.748;2023-12-22T04:44:33;10.38;;;7.60;;
57057;SDS011;74999;52.848;6.748;2023-12-22T04:46:59;12.15;;;7.95;;
57057;SDS011;74999;52.848;6.748;2023-12-22T04:49:25;11.32;;;8.88;;
57057;SDS011;74999;52.848;6.748;2023-12-22T04:51:50;15.35;;;8.45;;
57057;SDS011;74999;52.848;6.748;2023-12-22T04:54:16;13.32;;;8.27;;
57057;SDS011;74999;52.848;6.748;2023-12-22T04:56:42;15.30;;;8.15;;
57057;SDS011;74999;52.848;6.748;2023-12-22T04:59:07;17.00;;;9.05;;
57057;SDS011;74999;52.848;6.748;2023-12-22T05:01:33;11.95;;;9.95;;
57057;SDS011;74999;52.848;6.748;2023-12-22T05:03:58;19.40;;;9.25;;
57057;SDS011;74999;52.848;6.748;2023-12-22T05:06:24;17.13;;;7.72;;
57057;SDS011;74999;52.848;6.748;2023-12-22T05:08:49;17.85;;;9.25;;
57057;SDS011;74999;52.848;6.748;2023-12-22T05:11:15;13.65;;;8.77;;
57057;SDS011;74999;52.848;6.748;2023-12-22T05:13:41;15.50;;;8.70;;
57057;SDS011;74999;52.848;6.748;2023-12-22T05:16:08;19.70;;;8.77;;
57057;SDS011;74999;52.848;6.748;2023-12-22T05:18:33;18.70;;;11.35;;
57057;SDS011;74999;52.848;6.748;2023-12-22T05:20:59;15.75;;;8.70;;
57057;SDS011;74999;52.848;6.748;2023-12-22T05:23:24;16.25;;;8.68;;
57057;SDS011;74999;52.848;6.748;2023-12-22T05:25:50;19.27;;;13.98;;
57057;SDS011;74999;52.848;6.748;2023-12-22T05:28:16;19.75;;;13.52;;
57057;SDS011;74999;52.848;6.748;2023-12-22T05:30:41;13.68;;;8.32;;
57057;SDS011;74999;52.848;6.748;2023-12-22T05:33:07;21.02;;;7.80;;
57057;SDS011;74999;52.848;6.748;2023-12-22T05:35:33;17.08;;;9.52;;
57057;SDS011;74999;52.848;6.748;2023-12-22T05:37:58;16.95;;;7.43;;
57057;SDS011;74999;52.848;6.748;2023-12-22T05:40:24;20.83;;;8.07;;
57057;SDS011;74999;52.848;6.748;2023-12-22T05:42:49;17.25;;;8.48;;
57057;SDS011;74999;52.848;6.748;2023-12-22T05:45:15;9.50;;;8.43;;
57057;SDS011;74999;52.848;6.748;2023-12-22T05:47:40;12.43;;;8.18;;
57057;SDS011;74999;52.848;6.748;2023-12-22T05:50:07;14.88;;;8.00;;
57057;SDS011;74999;52.848;6.748;2023-12-22T05:52:33;14.85;;;7.78;;
57057;SDS011;74999;52.848;6.748;2023-12-22T05:54:58;14.07;;;8.20;;
57057;SDS011;74999;52.848;6.748;2023-12-22T05:57:27;15.07;;;9.05;;
57057;SDS011;74999;52.848;6.748;2023-12-22T05:59:52;16.35;;;7.72;;
57057;SDS011;74999;52.848;6.748;2023-12-22T06:02:18;18.83;;;9.13;;
57057;SDS011;74999;52.848;6.748;2023-12-22T06:04:44;18.52;;;7.43;;
57057;SDS011;74999;52.848;6.748;2023-12-22T06:07:10;13.07;;;7.63;;
57057;SDS011;74999;52.848;6.748;2023-12-22T06:09:36;14.73;;;8.23;;
57057;SDS011;74999;52.848;6.748;2023-12-22T06:12:01;13.00;;;9.52;;
57057;SDS011;74999;52.848;6.748;2023-12-22T06:14:27;15.65;;;9.07;;
57057;SDS011;74999;52.848;6.748;2023-12-22T06:16:53;15.20;;;9.20;;
57057;SDS011;74999;52.848;6.748;2023-12-22T06:19:21;15.30;;;8.02;;
57057;SDS011;74999;52.848;6.748;2023-12-22T06:21:49;17.27;;;9.90;;
57057;SDS011;74999;52.848;6.748;2023-12-22T06:24:14;11.63;;;7.82;;
57057;SDS011;74999;52.848;6.748;2023-12-22T06:26:41;13.57;;;8.90;;
57057;SDS011;74999;52.848;6.748;2023-12-22T06:29:07;13.65;;;7.72;;
57057;SDS011;74999;52.848;6.748;2023-12-22T06:31:32;13.70;;;7.30;;
57057;SDS011;74999;52.848;6.748;2023-12-22T06:33:58;13.88;;;8.82;;
57057;SDS011;74999;52.848;6.748;2023-12-22T06:36:27;14.38;;;8.80;;
57057;SDS011;74999;52.848;6.748;2023-12-22T06:38:53;11.13;;;7.63;;
57057;SDS011;74999;52.848;6.748;2023-12-22T06:43:45;11.32;;;7.63;;
57057;SDS011;74999;52.848;6.748;2023-12-22T06:48:43;11.18;;;8.27;;
57057;SDS011;74999;52.848;6.748;2023-12-22T06:51:22;17.75;;;11.20;;
57057;SDS011;74999;52.848;6.748;2023-12-22T06:53:49;11.50;;;7.55;;
57057;SDS011;74999;52.848;6.748;2023-12-22T06:56:19;12.65;;;8.48;;
57057;SDS011;74999;52.848;6.748;2023-12-22T06:58:49;12.30;;;8.23;;
57057;SDS011;74999;52.848;6.748;2023-12-22T07:01:24;15.43;;;11.90;;
57057;SDS011;74999;52.848;6.748;2023-12-22T07:03:54;12.02;;;6.95;;
57057;SDS011;74999;52.848;6.748;2023-12-22T07:06:20;13.00;;;7.25;;
57057;SDS011;74999;52.848;6.748;2023-12-22T07:11:48;11.25;;;8.60;;
57057;SDS011;74999;52.848;6.748;2023-12-22T07:14:20;18.00;;;9.73;;
57057;SDS011;74999;52.848;6.748;2023-12-22T07:16:46;20.52;;;8.77;;
57057;SDS011;74999;52.848;6.748;2023-12-22T07:19:12;11.30;;;7.93;;
57057;SDS011;74999;52.848;6.748;2023-12-22T07:21:38;11.63;;;10.63;;
57057;SDS011;74999;52.848;6.748;2023-12-22T07:24:04;15.13;;;7.88;;
57057;SDS011;74999;52.848;6.748;2023-12-22T07:26:30;7.97;;;6.90;;
57057;SDS011;74999;52.848;6.748;2023-12-22T07:28:56;10.23;;;7.60;;
57057;SDS011;74999;52.848;6.748;2023-12-22T07:31:21;16.70;;;8.63;;
57057;SDS011;74999;52.848;6.748;2023-12-22T07:33:47;15.32;;;8.15;;
57057;SDS011;74999;52.848;6.748;2023-12-22T07:36:13;12.25;;;8.00;;
57057;SDS011;74999;52.848;6.748;2023-12-22T07:38:38;13.60;;;7.65;;
57057;SDS011;74999;52.848;6.748;2023-12-22T07:41:04;11.35;;;8.02;;
57057;SDS011;74999;52.848;6.748;2023-12-22T07:43:30;11.77;;;7.28;;
57057;SDS011;74999;52.848;6.748;2023-12-22T07:45:56;22.10;;;10.15;;
57057;SDS011;74999;52.848;6.748;2023-12-22T07:48:22;12.00;;;8.32;;
57057;SDS011;74999;52.848;6.748;2023-12-22T07:50:49;15.52;;;8.15;;
57057;SDS011;74999;52.848;6.748;2023-12-22T07:53:14;13.23;;;8.60;;
57057;SDS011;74999;52.848;6.748;2023-12-22T07:55:40;13.57;;;7.72;;
57057;SDS011;74999;52.848;6.748;2023-12-22T07:58:05;14.38;;;7.10;;
57057;SDS011;74999;52.848;6.748;2023-12-22T08:00:32;12.82;;;8.90;;
57057;SDS011;74999;52.848;6.748;2023-12-22T08:02:57;11.20;;;7.82;;
57057;SDS011;74999;52.848;6.748;2023-12-22T08:05:23;13.23;;;7.88;;
57057;SDS011;74999;52.848;6.748;2023-12-22T08:07:49;16.00;;;7.15;;
57057;SDS011;74999;52.848;6.748;2023-12-22T08:10:14;9.18;;;7.22;;
57057;SDS011;74999;52.848;6.748;2023-12-22T08:12:41;19.90;;;8.02;;
57057;SDS011;74999;52.848;6.748;2023-12-22T08:15:07;11.82;;;7.93;;
57057;SDS011;74999;52.848;6.748;2023-12-22T08:17:35;12.43;;;7.78;;
57057;SDS011;74999;52.848;6.748;2023-12-22T08:20:02;14.75;;;7.28;;
57057;SDS011;74999;52.848;6.748;2023-12-22T08:22:28;12.85;;;8.07;;
57057;SDS011;74999;52.848;6.748;2023-12-22T08:24:54;13.60;;;8.65;;
57057;SDS011;74999;52.848;6.748;2023-12-22T08:27:19;12.93;;;7.60;;
57057;SDS011;74999;52.848;6.748;2023-12-22T08:29:45;16.13;;;9.25;;
57057;SDS011;74999;52.848;6.748;2023-12-22T08:32:10;15.82;;;8.18;;
57057;SDS011;74999;52.848;6.748;2023-12-22T08:34:36;15.40;;;7.18;;
57057;SDS011;74999;52.848;6.748;2023-12-22T08:37:01;11.23;;;8.65;;
57057;SDS011;74999;52.848;6.748;2023-12-22T08:39:27;14.80;;;8.32;;
57057;SDS011;74999;52.848;6.748;2023-12-22T08:41:53;10.23;;;8.05;;
57057;SDS011;74999;52.848;6.748;2023-12-22T08:44:19;13.80;;;12.23;;
57057;SDS011;74999;52.848;6.748;2023-12-22T08:46:44;13.30;;;8.30;;
57057;SDS011;74999;52.848;6.748;2023-12-22T08:49:10;16.98;;;8.88;;
57057;SDS011;74999;52.848;6.748;2023-12-22T08:51:36;11.25;;;8.50;;
57057;SDS011;74999;52.848;6.748;2023-12-22T08:54:01;10.90;;;7.65;;
57057;SDS011;74999;52.848;6.748;2023-12-22T08:56:29;9.35;;;8.25;;
57057;SDS011;74999;52.848;6.748;2023-12-22T08:58:55;12.73;;;9.15;;
57057;SDS011;74999;52.848;6.748;2023-12-22T09:01:21;11.75;;;10.68;;
57057;SDS011;74999;52.848;6.748;2023-12-22T09:03:47;8.85;;;8.15;;
57057;SDS011;74999;52.848;6.748;2023-12-22T09:06:16;9.98;;;7.25;;
57057;SDS011;74999;52.848;6.748;2023-12-22T09:08:43;8.48;;;7.38;;
57057;SDS011;74999;52.848;6.748;2023-12-22T09:11:10;7.53;;;6.80;;
57057;SDS011;74999;52.848;6.748;2023-12-22T09:13:37;7.47;;;6.88;;
57057;SDS011;74999;52.848;6.748;2023-12-22T09:16:03;11.32;;;10.57;;
57057;SDS011;74999;52.848;6.748;2023-12-22T09:18:28;8.20;;;7.40;;
57057;SDS011;74999;52.848;6.748;2023-12-22T09:20:54;8.30;;;7.60;;
57057;SDS011;74999;52.848;6.748;2023-12-22T09:23:19;7.95;;;7.25;;
57057;SDS011;74999;52.848;6.748;2023-12-22T09:25:46;7.28;;;6.82;;
57057;SDS011;74999;52.848;6.748;2023-12-22T09:28:12;10.68;;;9.25;;
57057;SDS011;74999;52.848;6.748;2023-12-22T09:30:37;7.22;;;6.68;;
57057;SDS011;74999;52.848;6.748;2023-12-22T09:33:03;7.38;;;6.80;;
57057;SDS011;74999;52.848;6.748;2023-12-22T09:35:29;11.38;;;7.57;;
57057;SDS011;74999;52.848;6.748;2023-12-22T09:37:54;7.60;;;6.90;;
57057;SDS011;74999;52.848;6.748;2023-12-22T09:40:20;7.13;;;6.53;;
57057;SDS011;74999;52.848;6.748;2023-12-22T09:42:47;8.00;;;7.50;;
57057;SDS011;74999;52.848;6.748;2023-12-22T09:45:13;8.15;;;6.85;;
57057;SDS011;74999;52.848;6.748;2023-12-22T09:47:44;6.78;;;6.38;;
57057;SDS011;74999;52.848;6.748;2023-12-22T09:50:10;7.13;;;6.45;;
57057;SDS011;74999;52.848;6.748;2023-12-22T09:52:36;7.85;;;6.90;;
57057;SDS011;74999;52.848;6.748;2023-12-22T09:55:04;6.50;;;6.10;;
57057;SDS011;74999;52.848;6.748;2023-12-22T09:57:33;6.85;;;6.10;;
57057;SDS011;74999;52.848;6.748;2023-12-22T10:00:00;8.52;;;8.00;;
57057;SDS011;74999;52.848;6.748;2023-12-22T10:02:31;8.35;;;7.47;;
57057;SDS011;74999;52.848;6.748;2023-12-22T10:04:59;8.70;;;7.53;;
57057;SDS011;74999;52.848;6.748;2023-12-22T10:07:25;7.38;;;6.72;;
57057;SDS011;74999;52.848;6.748;2023-12-22T10:09:51;9.30;;;6.68;;
57057;SDS011;74999;52.848;6.748;2023-12-22T10:12:20;9.13;;;7.70;;
57057;SDS011;74999;52.848;6.748;2023-12-22T10:14:47;7.85;;;7.07;;
57057;SDS011;74999;52.848;6.748;2023-12-22T10:17:13;7.57;;;7.05;;
57057;SDS011;74999;52.848;6.748;2023-12-22T10:19:39;7.57;;;6.88;;
57057;SDS011;74999;52.848;6.748;2023-12-22T10:22:05;9.82;;;6.55;;
57057;SDS011;74999;52.848;6.748;2023-12-22T10:24:40;9.80;;;8.68;;
57057;SDS011;74999;52.848;6.748;2023-12-22T10:27:07;6.78;;;6.13;;
57057;SDS011;74999;52.848;6.748;2023-12-22T10:29:33;8.15;;;7.38;;
57057;SDS011;74999;52.848;6.748;2023-12-22T10:32:03;7.68;;;6.80;;
57057;SDS011;74999;52.848;6.748;2023-12-22T10:34:32;7.80;;;6.63;;
57057;SDS011;74999;52.848;6.748;2023-12-22T10:36:58;8.20;;;6.93;;
57057;SDS011;74999;52.848;6.748;2023-12-22T10:39:31;9.25;;;8.32;;
57057;SDS011;74999;52.848;6.748;2023-12-22T10:41:57;10.90;;;7.43;;
57057;SDS011;74999;52.848;6.748;2023-12-22T10:44:24;9.98;;;8.55;;
57057;SDS011;74999;52.848;6.748;2023-12-22T10:46:50;13.45;;;9.50;;
57057;SDS011;74999;52.848;6.748;2023-12-22T10:49:17;8.63;;;7.40;;
57057;SDS011;74999;52.848;6.748;2023-12-22T10:51:43;8.20;;;7.40;;
57057;SDS011;74999;52.848;6.748;2023-12-22T10:54:09;14.00;;;8.00;;
57057;SDS011;74999;52.848;6.748;2023-12-22T10:56:35;10.70;;;7.82;;
57057;SDS011;74999;52.848;6.748;2023-12-22T10:59:01;13.73;;;6.88;;
57057;SDS011;74999;52.848;6.748;2023-12-22T11:01:28;10.05;;;7.93;;
57057;SDS011;74999;52.848;6.748;2023-12-22T11:03:56;9.65;;;7.00;;
57057;SDS011;74999;52.848;6.748;2023-12-22T11:06:26;10.73;;;7.40;;
57057;SDS011;74999;52.848;6.748;2023-12-22T11:08:54;12.90;;;8.93;;
57057;SDS011;74999;52.848;6.748;2023-12-22T11:11:33;9.73;;;8.50;;
57057;SDS011;74999;52.848;6.748;2023-12-22T11:13:59;8.25;;;7.53;;
57057;SDS011;74999;52.848;6.748;2023-12-22T11:16:27;12.25;;;8.85;;
57057;SDS011;74999;52.848;6.748;2023-12-22T11:18:58;8.63;;;7.35;;
57057;SDS011;74999;52.848;6.748;2023-12-22T11:21:25;7.85;;;6.85;;
57057;SDS011;74999;52.848;6.748;2023-12-22T11:23:52;8.27;;;6.75;;
57057;SDS011;74999;52.848;6.748;2023-12-22T11:26:19;9.05;;;8.15;;
57057;SDS011;74999;52.848;6.748;2023-12-22T11:28:47;7.88;;;7.18;;
57057;SDS011;74999;52.848;6.748;2023-12-22T11:31:13;9.20;;;6.68;;
57057;SDS011;74999;52.848;6.748;2023-12-22T11:33:49;7.45;;;6.78;;
57057;SDS011;74999;52.848;6.748;2023-12-22T11:36:16;8.77;;;7.05;;
57057;SDS011;74999;52.848;6.748;2023-12-22T11:38:43;7.45;;;6.82;;
57057;SDS011;74999;52.848;6.748;2023-12-22T11:43:44;8.85;;;7.97;;
57057;SDS011;74999;52.848;6.748;2023-12-22T11:46:10;7.50;;;6.68;;
57057;SDS011;74999;52.848;6.748;2023-12-22T11:48:36;8.45;;;7.65;;
57057;SDS011;74999;52.848;6.748;2023-12-22T11:51:11;9.48;;;8.15;;
57057;SDS011;74999;52.848;6.748;2023-12-22T11:53:39;7.63;;;7.03;;
57057;SDS011;74999;52.848;6.748;2023-12-22T11:56:05;9.95;;;9.20;;
57057;SDS011;74999;52.848;6.748;2023-12-22T11:58:37;10.40;;;7.22;;
57057;SDS011;74999;52.848;6.748;2023-12-22T12:01:03;10.30;;;9.50;;
57057;SDS011;74999;52.848;6.748;2023-12-22T12:03:36;8.75;;;6.65;;
57057;SDS011;74999;52.848;6.748;2023-12-22T12:08:38;8.93;;;6.80;;
57057;SDS011;74999;52.848;6.748;2023-12-22T12:11:04;7.63;;;6.97;;
57057;SDS011;74999;52.848;6.748;2023-12-22T12:13:31;8.85;;;6.57;;
57057;SDS011;74999;52.848;6.748;2023-12-22T12:15:59;6.63;;;5.78;;
57057;SDS011;74999;52.848;6.748;2023-12-22T12:18:29;9.00;;;7.10;;
57057;SDS011;74999;52.848;6.748;2023-12-22T12:20:55;10.88;;;7.68;;
57057;SDS011;74999;52.848;6.748;2023-12-22T12:23:24;7.32;;;6.70;;
57057;SDS011;74999;52.848;6.748;2023-12-22T12:25:51;9.02;;;7.80;;
57057;SDS011;74999;52.848;6.748;2023-12-22T12:28:18;8.85;;;6.88;;
57057;SDS011;74999;52.848;6.748;2023-12-22T12:30:57;9.63;;;6.90;;
57057;SDS011;74999;52.848;6.748;2023-12-22T12:33:24;7.70;;;7.00;;
57057;SDS011;74999;52.848;6.748;2023-12-22T12:35:52;9.05;;;7.38;;
57057;SDS011;74999;52.848;6.748;2023-12-22T12:38:23;8.40;;;6.85;;
57057;SDS011;74999;52.848;6.748;2023-12-22T12:40:59;7.28;;;6.43;;
57057;SDS011;74999;52.848;6.748;2023-12-22T12:43:25;9.88;;;7.35;;
57057;SDS011;74999;52.848;6.748;2023-12-22T12:45:51;8.85;;;8.15;;
57057;SDS011;74999;52.848;6.748;2023-12-22T12:48:17;8.75;;;7.05;;
57057;SDS011;74999;52.848;6.748;2023-12-22T12:50:44;11.32;;;10.52;;
57057;SDS011;74999;52.848;6.748;2023-12-22T12:53:09;7.28;;;6.53;;
57057;SDS011;74999;52.848;6.748;2023-12-22T12:55:35;8.07;;;7.38;;
57057;SDS011;74999;52.848;6.748;2023-12-22T12:58:01;11.32;;;8.02;;
57057;SDS011;74999;52.848;6.748;2023-12-22T13:00:27;9.95;;;8.95;;
57057;SDS011;74999;52.848;6.748;2023-12-22T13:02:54;8.77;;;7.93;;
57057;SDS011;74999;52.848;6.748;2023-12-22T13:05:21;12.50;;;7.60;;
57057;SDS011;74999;52.848;6.748;2023-12-22T13:07:47;7.65;;;6.88;;
57057;SDS011;74999;52.848;6.748;2023-12-22T13:10:19;11.35;;;7.13;;
57057;SDS011;74999;52.848;6.748;2023-12-22T13:12:49;11.13;;;8.68;;
57057;SDS011;74999;52.848;6.748;2023-12-22T13:15:16;9.43;;;8.65;;
57057;SDS011;74999;52.848;6.748;2023-12-22T13:17:42;8.60;;;7.63;;
57057;SDS011;74999;52.848;6.748;2023-12-22T13:20:09;10.40;;;7.57;;
57057;SDS011;74999;52.848;6.748;2023-12-22T13:22:35;9.48;;;6.63;;
57057;SDS011;74999;52.848;6.748;2023-12-22T13:25:00;8.43;;;7.30;;
57057;SDS011;74999;52.848;6.748;2023-12-22T13:27:26;11.43;;;7.97;;
57057;SDS011;74999;52.848;6.748;2023-12-22T13:29:52;10.18;;;7.20;;
57057;SDS011;74999;52.848;6.748;2023-12-22T13:32:19;7.80;;;7.00;;
57057;SDS011;74999;52.848;6.748;2023-12-22T13:34:54;9.48;;;7.38;;
57057;SDS011;74999;52.848;6.748;2023-12-22T13:37:20;13.02;;;11.82;;
57057;SDS011;74999;52.848;6.748;2023-12-22T13:39:47;9.73;;;7.03;;
57057;SDS011;74999;52.848;6.748;2023-12-22T13:42:17;10.70;;;8.02;;
57057;SDS011;74999;52.848;6.748;2023-12-22T13:44:48;8.70;;;6.47;;
57057;SDS011;74999;52.848;6.748;2023-12-22T13:47:17;7.60;;;6.78;;
57057;SDS011;74999;52.848;6.748;2023-12-22T13:49:44;7.63;;;6.93;;
57057;SDS011;74999;52.848;6.748;2023-12-22T13:54:59;6.95;;;6.30;;
57057;SDS011;74999;52.848;6.748;2023-12-22T13:57:27;7.80;;;6.93;;
57057;SDS011;74999;52.848;6.748;2023-12-22T13:59:52;7.80;;;6.43;;
57057;SDS011;74999;52.848;6.748;2023-12-22T14:02:21;6.93;;;6.38;;
57057;SDS011;74999;52.848;6.748;2023-12-22T14:04:48;8.52;;;7.00;;
57057;SDS011;74999;52.848;6.748;2023-12-22T14:07:15;8.25;;;7.38;;
57057;SDS011;74999;52.848;6.748;2023-12-22T14:09:40;7.90;;;7.30;;
57057;SDS011;74999;52.848;6.748;2023-12-22T14:12:06;9.05;;;7.57;;
57057;SDS011;74999;52.848;6.748;2023-12-22T14:14:32;8.15;;;7.65;;
57057;SDS011;74999;52.848;6.748;2023-12-22T14:16:57;8.40;;;7.05;;
57057;SDS011;74999;52.848;6.748;2023-12-22T14:19:23;8.73;;;7.32;;
57057;SDS011;74999;52.848;6.748;2023-12-22T14:21:48;8.93;;;8.02;;
57057;SDS011;74999;52.848;6.748;2023-12-22T14:24:14;9.90;;;8.85;;
57057;SDS011;74999;52.848;6.748;2023-12-22T14:26:56;9.88;;;8.07;;
57057;SDS011;74999;52.848;6.748;2023-12-22T14:29:22;11.25;;;10.55;;
57057;SDS011;74999;52.848;6.748;2023-12-22T14:31:48;8.57;;;7.53;;
57057;SDS011;74999;52.848;6.748;2023-12-22T14:34:15;8.15;;;7.45;;
57057;SDS011;74999;52.848;6.748;2023-12-22T14:36:40;7.22;;;6.53;;
57057;SDS011;74999;52.848;6.748;2023-12-22T14:39:06;7.60;;;6.90;;
57057;SDS011;74999;52.848;6.748;2023-12-22T14:41:31;8.85;;;7.05;;
57057;SDS011;74999;52.848;6.748;2023-12-22T14:43:57;6.75;;;6.15;;
57057;SDS011;74999;52.848;6.748;2023-12-22T14:46:22;7.82;;;7.20;;
57057;SDS011;74999;52.848;6.748;2023-12-22T14:48:48;6.55;;;6.05;;
57057;SDS011;74999;52.848;6.748;2023-12-22T14:51:13;6.25;;;5.75;;
57057;SDS011;74999;52.848;6.748;2023-12-22T14:53:39;7.25;;;6.07;;